createdAt,value
2022-11-23T00:01:01.043Z,6.69
2022-11-23T00:03:30.016Z,6.68
2022-11-23T00:05:57.771Z,6.70
2022-11-23T00:08:25.372Z,6.66
2022-11-23T00:10:53.032Z,6.65
2022-11-23T00:13:20.662Z,6.67
2022-11-23T00:15:48.315Z,6.64
2022-11-23T00:18:16.013Z,6.65
2022-11-23T00:20:45.047Z,6.64
2022-11-23T00:23:12.726Z,6.62
2022-11-23T00:25:40.539Z,6.63
2022-11-23T00:28:08.187Z,6.64
2022-11-23T00:30:35.820Z,6.63
2022-11-23T00:33:03.292Z,6.64
2022-11-23T00:35:30.724Z,6.63
2022-11-23T00:37:59.568Z,6.63
2022-11-23T00:40:27.093Z,6.63
2022-11-23T00:42:54.574Z,6.59
2022-11-23T00:45:22.031Z,6.59
2022-11-23T00:47:49.512Z,6.58
2022-11-23T00:50:17.882Z,6.62
2022-11-23T00:52:45.412Z,6.62
2022-11-23T00:55:14.308Z,6.56
2022-11-23T00:57:41.794Z,6.49
2022-11-23T01:00:12.435Z,6.49
2022-11-23T01:02:39.955Z,6.43
2022-11-23T01:05:08.058Z,6.38
2022-11-23T01:07:35.604Z,6.35
2022-11-23T01:10:03.394Z,6.31
2022-11-23T01:12:32.236Z,6.32
2022-11-23T01:14:59.798Z,6.29
2022-11-23T01:17:27.335Z,6.24
2022-11-23T01:19:54.860Z,6.27
2022-11-23T01:22:22.870Z,6.29
2022-11-23T01:24:51.276Z,6.28
2022-11-23T01:27:18.815Z,6.28
2022-11-23T01:29:47.715Z,6.30
2022-11-23T01:32:15.344Z,6.30
2022-11-23T01:34:42.848Z,6.31
2022-11-23T01:37:10.357Z,6.30
2022-11-23T01:39:37.880Z,6.32
2022-11-23T01:42:08.007Z,6.36
2022-11-23T01:44:38.396Z,6.37
2022-11-23T01:47:09.383Z,6.39
2022-11-23T01:49:40.305Z,6.41
2022-11-23T01:52:12.639Z,6.43
2022-11-23T01:54:44.546Z,6.46
2022-11-23T01:57:16.276Z,6.47
2022-11-23T01:59:43.976Z,6.46
2022-11-23T02:02:13.721Z,6.45
2022-11-23T02:04:44.204Z,6.48
2022-11-23T02:07:12.052Z,6.45
2022-11-23T02:09:40.216Z,6.43
2022-11-23T02:12:11.942Z,6.46
2022-11-23T02:14:40.085Z,6.45
2022-11-23T02:17:07.857Z,6.47
2022-11-23T02:19:49.016Z,6.45
2022-11-23T02:22:24.988Z,6.46
2022-11-23T02:24:55.877Z,6.46
2022-11-23T02:27:27.846Z,6.47
2022-11-23T02:29:56.197Z,6.42
2022-11-23T02:32:25.770Z,6.45
2022-11-23T02:34:53.264Z,6.47
2022-11-23T02:37:20.796Z,6.47
2022-11-23T02:39:52.047Z,6.45
2022-11-23T02:42:19.786Z,6.46
2022-11-23T02:44:57.479Z,6.46
2022-11-23T02:47:25.045Z,6.49
2022-11-23T02:49:52.575Z,6.50
2022-11-23T02:52:20.310Z,6.49
2022-11-23T02:54:47.857Z,6.49
2022-11-23T02:57:15.907Z,6.47
2022-11-23T02:59:43.314Z,6.49
2022-11-23T03:04:57.276Z,6.52
2022-11-23T03:07:24.800Z,6.49
2022-11-23T03:09:52.295Z,6.55
2022-11-23T03:12:19.784Z,6.55
2022-11-23T03:14:47.278Z,6.57
2022-11-23T03:17:16.152Z,6.57
2022-11-23T03:19:43.699Z,6.60
2022-11-23T03:22:11.379Z,6.56
2022-11-23T03:24:38.968Z,6.52
2022-11-23T03:27:06.538Z,6.58
2022-11-23T03:29:34.458Z,6.55
2022-11-23T03:32:02.085Z,6.55
2022-11-23T03:34:30.964Z,6.57
2022-11-23T03:36:58.396Z,6.59
2022-11-23T03:39:25.931Z,6.56
2022-11-23T03:41:53.771Z,6.57
2022-11-23T03:44:21.251Z,6.59
2022-11-23T03:46:50.324Z,6.59
2022-11-23T03:49:18.222Z,6.59
2022-11-23T03:51:47.000Z,6.59
2022-11-23T03:54:14.482Z,6.56
2022-11-23T03:56:41.992Z,6.59
2022-11-23T04:01:55.001Z,6.61
2022-11-23T04:04:22.509Z,6.63
2022-11-23T04:06:51.332Z,6.66
2022-11-23T04:09:18.866Z,6.67
2022-11-23T04:11:46.332Z,6.66
2022-11-23T04:14:13.784Z,6.66
2022-11-23T04:16:41.251Z,6.68
2022-11-23T04:19:08.889Z,6.70
2022-11-23T04:21:36.451Z,6.67
2022-11-23T04:24:05.815Z,6.65
2022-11-23T04:26:33.374Z,6.59
2022-11-23T04:29:00.870Z,6.57
2022-11-23T04:31:28.360Z,6.60
2022-11-23T04:33:57.336Z,6.58
2022-11-23T04:36:24.883Z,6.58
2022-11-23T04:38:53.605Z,6.54
2022-11-23T04:41:23.020Z,6.53
2022-11-23T04:43:51.746Z,6.52
2022-11-23T04:46:19.763Z,6.50
2022-11-23T04:48:47.374Z,6.47
2022-11-23T04:51:16.195Z,6.50
2022-11-23T04:53:43.701Z,6.49
2022-11-23T04:56:11.230Z,6.49
2022-11-23T04:58:40.124Z,6.52
2022-11-23T05:01:08.144Z,6.45
2022-11-23T05:03:35.909Z,6.49
2022-11-23T05:06:04.709Z,6.48
2022-11-23T05:08:33.056Z,6.47
2022-11-23T05:11:00.583Z,6.41
2022-11-23T05:13:30.394Z,6.41
2022-11-23T05:15:59.183Z,6.42
2022-11-23T05:18:26.789Z,6.38
2022-11-23T05:20:54.437Z,6.39
2022-11-23T05:23:21.948Z,6.40
2022-11-23T05:25:49.489Z,6.40
2022-11-23T05:28:39.185Z,6.43
2022-11-23T05:31:10.697Z,6.46
2022-11-23T05:33:38.244Z,6.45
2022-11-23T05:36:06.417Z,6.45
2022-11-23T05:38:33.900Z,6.43
2022-11-23T05:41:01.353Z,6.43
2022-11-23T05:43:28.882Z,6.45
2022-11-23T05:46:00.232Z,6.42
2022-11-23T05:48:29.291Z,6.42
2022-11-23T05:51:02.178Z,6.43
2022-11-23T05:53:32.677Z,6.42
2022-11-23T05:56:01.315Z,6.42
2022-11-23T05:58:29.552Z,6.44
2022-11-23T06:00:58.756Z,6.39
2022-11-23T06:03:26.646Z,6.43
2022-11-23T06:05:55.496Z,6.45
2022-11-23T06:08:22.951Z,6.45
2022-11-23T06:10:50.396Z,6.45
2022-11-23T06:13:17.918Z,6.48
2022-11-23T06:15:45.447Z,6.47
2022-11-23T06:18:13.254Z,6.48
2022-11-23T06:20:40.660Z,6.46
2022-11-23T06:23:09.520Z,6.45
2022-11-23T06:25:38.633Z,6.46
2022-11-23T06:28:06.716Z,6.47
2022-11-23T06:30:34.644Z,6.49
2022-11-23T06:33:04.438Z,6.53
2022-11-23T06:35:32.009Z,6.54
2022-11-23T06:38:02.141Z,6.56
2022-11-23T06:40:31.603Z,6.58
2022-11-23T06:43:00.869Z,6.57
2022-11-23T06:45:28.598Z,6.59
2022-11-23T06:47:57.320Z,6.58
2022-11-23T06:50:25.064Z,6.54
2022-11-23T06:52:56.157Z,6.56
2022-11-23T06:55:24.178Z,6.56
2022-11-23T06:57:53.382Z,6.56
2022-11-23T07:00:21.463Z,6.56
2022-11-23T07:02:53.053Z,6.55
2022-11-23T07:05:21.142Z,6.58
2022-11-23T07:07:49.223Z,6.55
2022-11-23T07:10:17.989Z,6.50
2022-11-23T07:12:46.021Z,6.52
2022-11-23T07:15:15.048Z,6.42
2022-11-23T07:17:44.348Z,6.53
2022-11-23T07:20:13.837Z,6.55
2022-11-23T07:22:41.621Z,6.55
2022-11-23T07:25:11.357Z,6.50
2022-11-23T07:27:39.025Z,6.54
2022-11-23T07:30:08.133Z,6.58
2022-11-23T07:32:37.273Z,6.60
2022-11-23T07:35:05.510Z,6.66
2022-11-23T07:37:33.261Z,6.68
2022-11-23T07:40:01.412Z,6.72
2022-11-23T07:42:36.831Z,6.71
2022-11-23T07:45:10.437Z,6.79
2022-11-23T07:47:39.938Z,6.84
2022-11-23T07:50:09.503Z,6.92
2022-11-23T07:52:38.191Z,7.00
2022-11-23T07:55:06.963Z,7.03
2022-11-23T07:57:34.703Z,7.06
2022-11-23T08:00:02.625Z,7.06
2022-11-23T08:02:30.338Z,7.07
2022-11-23T08:04:59.329Z,7.11
2022-11-23T08:07:27.016Z,7.15
2022-11-23T08:09:54.755Z,7.17
2022-11-23T08:12:22.623Z,7.21
2022-11-23T08:14:50.320Z,7.21
2022-11-23T08:17:17.980Z,7.24
2022-11-23T08:19:45.811Z,7.24
2022-11-23T08:22:16.620Z,7.25
2022-11-23T08:24:44.242Z,7.26
2022-11-23T08:27:11.883Z,7.24
2022-11-23T08:29:39.563Z,7.24
2022-11-23T08:32:07.283Z,7.29
2022-11-23T08:34:35.208Z,7.31
2022-11-23T08:37:02.918Z,7.31
2022-11-23T08:39:31.954Z,7.37
2022-11-23T08:41:59.589Z,7.48
2022-11-23T08:44:27.305Z,7.53
2022-11-23T08:46:55.413Z,7.57
2022-11-23T08:49:23.043Z,7.60
2022-11-23T08:51:50.737Z,7.60
2022-11-23T08:54:18.535Z,7.63
2022-11-23T08:56:47.582Z,7.62
2022-11-23T08:59:17.037Z,7.59
2022-11-23T09:01:45.169Z,7.58
2022-11-23T09:04:17.744Z,7.60
2022-11-23T09:06:48.160Z,7.60
2022-11-23T09:09:16.066Z,7.62
2022-11-23T09:11:43.772Z,7.63
2022-11-23T09:14:12.870Z,7.65
2022-11-23T09:16:40.697Z,7.67
2022-11-23T09:19:08.367Z,7.67
2022-11-23T09:21:39.061Z,7.72
2022-11-23T09:24:07.641Z,7.75
2022-11-23T09:26:35.368Z,7.77
2022-11-23T09:29:02.997Z,7.79
2022-11-23T09:31:32.040Z,7.80
2022-11-23T09:33:59.704Z,7.84
2022-11-23T09:36:27.383Z,7.88
2022-11-23T09:38:57.253Z,7.95
2022-11-23T09:41:51.670Z,7.94
2022-11-23T09:44:25.347Z,8.00
2022-11-23T09:47:07.160Z,8.03
2022-11-23T09:49:45.720Z,8.05
2022-11-23T09:52:17.647Z,8.09
2022-11-23T09:54:48.273Z,8.12
2022-11-23T09:57:22.600Z,8.16
2022-11-23T09:59:54.529Z,8.18
2022-11-23T10:02:28.725Z,8.22
2022-11-23T10:04:59.783Z,8.22
2022-11-23T10:07:44.753Z,8.27
2022-11-23T10:10:28.121Z,8.29
2022-11-23T10:13:05.464Z,8.33
2022-11-23T10:15:40.607Z,8.37
2022-11-23T10:18:25.247Z,8.55
2022-11-23T10:21:00.369Z,8.70
2022-11-23T10:23:40.732Z,8.79
2022-11-23T10:26:13.912Z,8.73
2022-11-23T10:28:41.695Z,8.74
2022-11-23T10:31:14.745Z,8.80
2022-11-23T10:33:54.380Z,8.92
2022-11-23T10:36:22.037Z,8.94
2022-11-23T10:38:52.226Z,9.06
2022-11-23T10:41:19.948Z,9.00
2022-11-23T10:43:54.756Z,8.97
2022-11-23T10:46:29.119Z,8.99
2022-11-23T10:49:11.209Z,9.03
2022-11-23T10:51:39.246Z,9.06
2022-11-23T10:54:20.986Z,8.99
2022-11-23T10:56:50.049Z,9.01
2022-11-23T10:59:28.785Z,9.04
2022-11-23T11:02:19.689Z,8.98
2022-11-23T11:04:54.450Z,9.01
2022-11-23T11:07:29.330Z,9.00
2022-11-23T11:09:58.799Z,8.99
2022-11-23T11:12:27.829Z,8.94
2022-11-23T11:15:10.811Z,8.96
2022-11-23T11:17:41.849Z,8.97
2022-11-23T11:20:32.454Z,9.00
2022-11-23T11:23:03.035Z,9.02
2022-11-23T11:25:33.618Z,9.07
2022-11-23T11:28:03.292Z,9.13
2022-11-23T11:30:42.544Z,9.17
2022-11-23T11:33:16.777Z,9.20
2022-11-23T11:35:50.219Z,9.26
2022-11-23T11:38:23.668Z,9.28
2022-11-23T11:40:52.944Z,9.30
2022-11-23T11:43:34.716Z,9.25
2022-11-23T11:46:29.134Z,9.30
2022-11-23T11:49:04.594Z,9.26
2022-11-23T11:51:40.405Z,9.36
2022-11-23T11:54:16.589Z,9.39
2022-11-23T11:56:45.877Z,9.49
2022-11-23T11:59:18.883Z,9.56
2022-11-23T12:01:55.164Z,9.71
2022-11-23T12:04:29.249Z,9.88
2022-11-23T12:07:06.660Z,9.90
2022-11-23T12:09:40.713Z,9.77
2022-11-23T12:12:16.112Z,9.71
2022-11-23T12:14:44.901Z,9.71
2022-11-23T12:17:37.617Z,9.76
2022-11-23T12:20:13.158Z,9.97
2022-11-23T12:22:57.202Z,9.99
2022-11-23T12:25:33.358Z,9.97
2022-11-23T12:28:16.853Z,9.91
2022-11-23T12:30:52.573Z,9.89
2022-11-23T12:33:44.637Z,9.85
2022-11-23T12:36:42.204Z,9.82
2022-11-23T12:39:28.563Z,9.90
2022-11-23T12:42:02.637Z,9.99
2022-11-23T12:45:07.251Z,10.15
2022-11-23T12:47:48.834Z,10.11
2022-11-23T12:50:21.960Z,10.08
2022-11-23T12:53:06.240Z,10.03
2022-11-23T12:55:46.790Z,9.94
2022-11-23T12:58:22.183Z,9.91
2022-11-23T13:00:55.161Z,9.87
2022-11-23T13:03:47.580Z,9.86
2022-11-23T13:07:26.394Z,9.93
2022-11-23T13:09:55.561Z,9.99
2022-11-23T13:12:39.564Z,9.95
2022-11-23T13:15:28.142Z,9.89
2022-11-23T13:18:06.826Z,9.86
2022-11-23T13:21:00.666Z,9.80
2022-11-23T13:23:28.661Z,9.74
2022-11-23T13:26:19.256Z,9.69
2022-11-23T13:28:49.791Z,9.64
2022-11-23T13:31:27.243Z,9.63
2022-11-23T13:33:56.796Z,9.59
2022-11-23T13:37:15.297Z,9.60
2022-11-23T13:40:03.698Z,9.66
2022-11-23T13:42:34.978Z,9.73
2022-11-23T13:45:26.597Z,9.69
2022-11-23T13:51:06.761Z,9.64
2022-11-23T13:53:36.539Z,9.59
2022-11-23T13:56:27.849Z,9.54
2022-11-23T13:58:56.734Z,9.51
2022-11-23T14:02:03.056Z,9.47
2022-11-23T14:04:32.459Z,9.46
2022-11-23T14:07:04.885Z,9.44
2022-11-23T14:09:37.450Z,9.45
2022-11-23T14:12:15.716Z,9.43
2022-11-23T14:14:56.288Z,9.40
2022-11-23T14:17:57.034Z,9.37
2022-11-23T14:20:56.505Z,9.37
2022-11-23T14:24:08.869Z,9.38
2022-11-23T14:26:50.084Z,9.34
2022-11-23T14:29:41.513Z,9.31
2022-11-23T14:32:25.247Z,9.31
2022-11-23T14:35:11.535Z,9.27
2022-11-23T14:37:57.859Z,9.27
2022-11-23T14:40:30.096Z,9.24
2022-11-23T14:42:59.056Z,9.22
2022-11-23T14:45:31.303Z,9.18
2022-11-23T14:48:19.406Z,9.17
2022-11-23T14:50:56.374Z,9.15
2022-11-23T14:53:30.271Z,9.12
2022-11-23T14:55:59.275Z,9.14
2022-11-23T14:58:31.809Z,9.13
2022-11-23T15:01:01.028Z,9.12
2022-11-23T15:06:19.417Z,9.04
2022-11-23T15:08:53.920Z,9.02
2022-11-23T15:11:24.537Z,8.98
2022-11-23T15:13:55.114Z,8.97
2022-11-23T15:16:23.193Z,8.98
2022-11-23T15:18:51.927Z,8.93
2022-11-23T15:21:26.813Z,8.94
2022-11-23T15:23:59.954Z,8.93
2022-11-23T15:29:36.535Z,8.92
2022-11-23T15:32:30.806Z,9.02
2022-11-23T15:35:02.785Z,9.03
2022-11-23T15:37:31.574Z,9.04
2022-11-23T15:40:01.511Z,8.96
2022-11-23T15:42:29.888Z,8.91
2022-11-23T15:44:57.676Z,8.89
2022-11-23T15:47:28.409Z,8.85
2022-11-23T15:50:02.134Z,8.80
2022-11-23T15:52:34.599Z,8.76
2022-11-23T15:55:09.647Z,8.76
2022-11-23T15:57:39.752Z,8.75
2022-11-23T16:00:10.565Z,8.77
2022-11-23T16:02:38.983Z,8.74
2022-11-23T16:05:14.378Z,8.72
2022-11-23T16:07:53.390Z,8.69
2022-11-23T16:10:24.570Z,8.69
2022-11-23T16:12:53.815Z,8.63
2022-11-23T16:15:41.237Z,8.63
2022-11-23T16:18:21.720Z,8.62
2022-11-23T16:20:52.880Z,8.61
2022-11-23T16:23:22.268Z,8.57
2022-11-23T16:25:57.988Z,8.54
2022-11-23T16:28:29.946Z,8.47
2022-11-23T16:30:58.207Z,8.52
2022-11-23T16:33:26.452Z,8.53
2022-11-23T16:35:54.597Z,8.53
2022-11-23T16:38:23.690Z,8.55
2022-11-23T16:40:51.532Z,8.60
2022-11-23T16:43:20.542Z,8.62
2022-11-23T16:45:51.611Z,8.64
2022-11-23T16:48:38.804Z,8.62
2022-11-23T16:51:07.205Z,8.59
2022-11-23T16:54:07.882Z,8.54
2022-11-23T16:56:25.137Z,8.48
2022-11-23T16:58:55.451Z,8.38
2022-11-23T17:01:25.328Z,8.31
2022-11-23T17:03:53.409Z,8.26
2022-11-23T17:06:23.205Z,8.23
2022-11-23T17:08:59.371Z,8.10
2022-11-23T17:11:29.559Z,8.06
2022-11-23T17:13:59.492Z,8.03
2022-11-23T17:16:27.583Z,7.92
2022-11-23T17:18:55.248Z,7.90
2022-11-23T17:21:22.920Z,7.93
2022-11-23T17:23:51.860Z,7.88
2022-11-23T17:26:31.683Z,7.83
2022-11-23T17:29:03.352Z,7.83
2022-11-23T17:31:31.631Z,7.90
2022-11-23T17:33:59.512Z,7.88
2022-11-23T17:36:27.609Z,7.88
2022-11-23T17:38:55.601Z,7.93
2022-11-23T17:41:23.378Z,7.91
2022-11-23T17:43:51.066Z,7.90
2022-11-23T17:46:23.686Z,7.80
2022-11-23T17:48:55.051Z,7.75
2022-11-23T17:51:22.752Z,7.75
2022-11-23T17:53:50.883Z,7.74
2022-11-23T17:56:20.362Z,7.72
2022-11-23T17:58:48.030Z,7.73
2022-11-23T18:01:17.984Z,7.76
2022-11-23T18:03:47.967Z,7.80
2022-11-23T18:06:16.926Z,7.82
2022-11-23T18:08:45.933Z,7.81
2022-11-23T18:11:13.686Z,7.82
2022-11-23T18:13:42.161Z,7.82
2022-11-23T18:16:10.958Z,7.77
2022-11-23T18:18:39.292Z,7.76
2022-11-23T18:21:09.701Z,7.71
2022-11-23T18:23:37.867Z,7.64
2022-11-23T18:26:14.020Z,7.60
2022-11-23T18:28:41.957Z,7.60
2022-11-23T18:31:10.247Z,7.60
2022-11-23T18:33:38.292Z,7.58
2022-11-23T18:36:08.349Z,7.60
2022-11-23T18:38:36.102Z,7.57
2022-11-23T18:41:03.740Z,7.52
2022-11-23T18:43:31.642Z,7.46
2022-11-23T18:45:59.845Z,7.53
2022-11-23T18:48:27.742Z,7.52
2022-11-23T18:50:55.414Z,7.44
2022-11-23T18:53:24.439Z,7.42
2022-11-23T18:55:56.157Z,7.38
2022-11-23T18:58:26.791Z,7.39
2022-11-23T19:00:54.487Z,7.28
2022-11-23T19:03:22.257Z,7.18
2022-11-23T19:05:49.981Z,7.21
2022-11-23T19:08:17.742Z,7.15
2022-11-23T19:10:47.084Z,7.11
2022-11-23T19:13:14.907Z,7.13
2022-11-23T19:15:43.776Z,7.22
2022-11-23T19:18:11.641Z,7.17
2022-11-23T19:20:40.042Z,7.09
2022-11-23T19:23:08.353Z,7.08
2022-11-23T19:25:36.023Z,7.01
2022-11-23T19:28:05.219Z,7.00
2022-11-23T19:30:32.931Z,6.95
2022-11-23T19:33:00.572Z,6.93
2022-11-23T19:35:28.553Z,6.92
2022-11-23T19:37:56.487Z,6.92
2022-11-23T19:40:26.622Z,6.92
2022-11-23T19:42:54.307Z,6.90
2022-11-23T19:45:23.273Z,6.88
2022-11-23T19:47:50.945Z,6.95
2022-11-23T19:50:18.942Z,6.89
2022-11-23T19:53:11.386Z,6.92
2022-11-23T19:55:34.335Z,6.95
2022-11-23T19:58:01.999Z,6.89
2022-11-23T20:00:31.005Z,6.90
2022-11-23T20:02:59.318Z,6.87
2022-11-23T20:05:27.252Z,6.94
2022-11-23T20:07:55.067Z,7.00
2022-11-23T20:10:22.777Z,7.07
2022-11-23T20:12:50.444Z,7.16
2022-11-23T20:15:18.185Z,7.25
2022-11-23T20:17:48.741Z,7.23
2022-11-23T20:20:17.248Z,7.25
2022-11-23T20:22:45.184Z,7.18
2022-11-23T20:25:13.242Z,7.11
2022-11-23T20:27:41.613Z,7.12
2022-11-23T20:30:10.340Z,7.07
2022-11-23T20:32:38.032Z,7.06
2022-11-23T20:35:08.094Z,7.08
2022-11-23T20:37:35.817Z,7.14
2022-11-23T20:40:04.018Z,7.14
2022-11-23T20:42:31.676Z,7.20
2022-11-23T20:44:59.358Z,7.22
2022-11-23T20:47:27.939Z,7.29
2022-11-23T20:49:55.703Z,7.31
2022-11-23T20:52:24.699Z,7.32
2022-11-23T20:54:52.543Z,7.35
2022-11-23T20:57:21.869Z,7.38
2022-11-23T20:59:50.164Z,7.37
2022-11-23T21:02:17.927Z,7.39
2022-11-23T21:04:46.457Z,7.42
2022-11-23T21:07:14.617Z,7.35
2022-11-23T21:09:43.844Z,7.34
2022-11-23T21:12:29.034Z,7.39
2022-11-23T21:14:56.817Z,7.44
2022-11-23T21:17:24.511Z,7.50
2022-11-23T21:19:52.334Z,7.49
2022-11-23T21:22:20.113Z,7.52
2022-11-23T21:24:49.277Z,7.51
2022-11-23T21:27:17.358Z,7.54
2022-11-23T21:29:45.156Z,7.55
2022-11-23T21:32:14.639Z,7.50
2022-11-23T21:34:42.458Z,7.53
2022-11-23T21:37:12.398Z,7.49
2022-11-23T21:39:41.477Z,7.48
2022-11-23T21:42:10.708Z,7.49
2022-11-23T21:44:38.452Z,7.46
2022-11-23T21:47:06.652Z,7.50
2022-11-23T21:49:34.350Z,7.48
2022-11-23T21:52:02.043Z,7.48
2022-11-23T21:54:29.709Z,7.53
2022-11-23T21:56:57.638Z,7.50
2022-11-23T21:59:26.727Z,7.47
2022-11-23T22:01:57.009Z,7.45
2022-11-23T22:04:25.101Z,7.57
2022-11-23T22:06:52.836Z,7.73
2022-11-23T22:09:20.830Z,7.87
2022-11-23T22:11:48.581Z,7.97
2022-11-23T22:14:19.297Z,7.98
2022-11-23T22:16:50.495Z,8.00
2022-11-23T22:19:18.802Z,8.03
2022-11-23T22:21:47.061Z,7.94
2022-11-23T22:24:16.251Z,7.91
2022-11-23T22:26:44.995Z,7.91
2022-11-23T22:29:12.910Z,7.91
2022-11-23T22:31:41.058Z,7.92
2022-11-23T22:34:12.818Z,7.86
2022-11-23T22:36:40.859Z,7.87
2022-11-23T22:39:09.348Z,7.90
2022-11-23T22:41:38.159Z,7.92
2022-11-23T22:44:07.813Z,7.93
2022-11-23T22:46:36.100Z,7.89
2022-11-23T22:49:03.985Z,7.89
2022-11-23T22:51:33.177Z,7.92
2022-11-23T22:54:01.737Z,7.93
2022-11-23T22:56:30.699Z,7.90
2022-11-23T22:58:59.000Z,7.88
2022-11-23T23:01:28.913Z,7.85
2022-11-23T23:03:58.248Z,7.80
2022-11-23T23:06:28.544Z,7.81
2022-11-23T23:09:01.419Z,7.78
2022-11-23T23:11:31.344Z,7.79
2022-11-23T23:13:59.544Z,7.79
2022-11-23T23:16:28.710Z,7.81
2022-11-23T23:18:57.487Z,7.80
2022-11-23T23:21:27.079Z,7.76
2022-11-23T23:23:59.200Z,7.77
2022-11-23T23:26:28.440Z,7.79
2022-11-23T23:28:56.953Z,7.77
2022-11-23T23:31:25.358Z,7.77
2022-11-23T23:33:54.417Z,7.73
2022-11-23T23:36:24.307Z,7.68
2022-11-23T23:38:52.702Z,7.65
2022-11-23T23:41:21.778Z,7.68
2022-11-23T23:43:49.506Z,7.69
2022-11-23T23:46:17.450Z,7.68
2022-11-23T23:48:45.679Z,7.68
2022-11-23T23:51:15.181Z,7.71
2022-11-23T23:53:43.727Z,7.71
2022-11-23T23:56:14.771Z,7.69
2022-11-23T23:58:44.172Z,7.68
